Share

Holdrege, NE (68949)

Brewster (KHDE) Elev 2310 ft | 40.45 °N, 99.34 °W | Change Station

Current weather conditions updated 17 minutes ago

Clear
Clear
64 °F
Feels Like 64 °F
N
12
Wind Variable Wind from South
Gusts 18 mph
Sunrise 6:53 AM
Sunset 8:20 PM
Moon Waning Gibbous

Today is forecast to be Warmer than yesterday. Scattered thunderstorms tonight.

Pressure 29.96 in
Visibility 10.0 miles
Clouds Clear
Dew Point 47 °F
Humidity 56%
Rainfall 0.00 in
Snow Depth Not available.
UV 7 out of 16
Pollen 11.50 out of 12
Air Quality Not available.
Flu Activity Sporadic
METAR KHDE 191615Z AUTO 18010G16KT 10SM CLR 18/09 A2996 RMK AO2 T01750085

More Conditions Fewer Conditions

Pressure 29.96 in
Visibility 10.0 miles
Clouds Clear
Dew Point 47 °F
Humidity 56%
Rainfall 0.00 in
Snow Depth Not available.
UV 7 out of 16
Pollen 11.50 out of 12
Air Quality Not available.
Flu Activity Sporadic
METAR KHDE 191615Z AUTO 18010G16KT 10SM CLR 18/09 A2996 RMK AO2 T01750085

More Conditions Fewer Conditions

10-Day Weather Forecast

Almanac

Astronomy

Apr. 19, 2014 Rise Set
Actual Time 6:53 AM CDT 8:20 PM CDT
Civil Twilight 6:24 AM CDT 8:49 PM CDT
Nautical Twilight 5:50 AM CDT 9:23 PM CDT
Astronomical Twilight 5:14 AM CDT 10:00 PM CDT
Moon 12:07 AM CDT 10:12 AM CDT
Length of Visible Light 14h 24m
Length of Day
13h 27m
Tomorrow will be 2m 29s longer.
Waning Gibbous, 78% of the Moon is Illuminated
Today
Waning Gibbous
Apr 22
Last Quarter
Apr 29
New
May 6
First Quarter
May 14
Full

Today's Extremes

State Highs State Lows

Community

  • A Glorious Morning
    A Glorious Morning
  • Tender Rays Of Hope
    Tender Rays Of Hope
  • Bleeding Hearts
    Bleeding Hearts
  • Sunset Silhouettes
    Sunset Silhouettes
  • FL sunset Perico Isle
    FL sunset Perico Isle

WunderPhotos

Upload Photos

1,702,796 photos uploaded!

WunderBlogs® & News

Nearby

Snow Depth

Station Depth Elevation
No new snow has been reported.

Coastal Water Temperatures

Place Temperature
No Stations Reporting

Earthquake Activity

City Distance Mag. Time & Date
No recent earthquake activity has been reported nearby.
Minimum magnitude displayed is 2.5.

Nearby Weather Stations

Station Location Temp. Dew Point Humidity Wind Precip. Elev Updated Type
MesoWest ODESS1 , Odessa, NE 57 °F - - North  at  - 0.00 in / hr 2215 ft 10:00 AM CDT MADIS
MesoWest OVERT1 , Overton, NE 56 °F - - North  at  - 0.00 in / hr 2303 ft 10:00 AM CDT MADIS
Target Hill, Kearney, NE 65.7 °F 50 °F 58% SW  at  19.1 mph 0.00 in / hr 2130 ft 11:32 AM CDT Rapid Fire

Show More Stations Show Fewer Stations

What do you think?

We're not finished. Please let us know what you like, what you don't like, and what you are still missing.